OMRK

Ras Al Khaimah International Airport

Ras Al Khaimah, United Arab Emirates
TAF OMRK 181102Z 1812/1918 34010KT CAVOK BECMG 1815/1817 VRB02KT BECMG 1908/1910 34015KT BECMG 1916/1918 06007KT
Issued Valid From Valid To
Jun-18 @ 11:02 UTC
(2 hours ago)
Jun-18 @ 12:00 UTC
(an hour ago)
Jun-19 @ 18:00 UTC
(-1 days ago)
Jun-18 @ 12:00 to Jun-18 @ 15:00
TAF OMRK 181102Z 1812/1918 34010KT CAVOK
Wind Visibility Clouds Conditions
340° at 10 knots 10,000+ meters
  • No significant clouds
Becoming Jun-18 @ 15:00 to Jun-19 @ 08:00
BECMG 1815/1817 VRB02KT
Wind Visibility Clouds Conditions
Variable at 2 knots 10,000+ meters
  • No significant clouds
Becoming Jun-19 @ 08:00 to Jun-19 @ 16:00
BECMG 1908/1910 34015KT
Wind Visibility Clouds Conditions
340° at 15 knots 10,000+ meters
  • No significant clouds
Becoming Jun-19 @ 16:00 to Jun-19 @ 18:00
BECMG 1916/1918 06007KT
Wind Visibility Clouds Conditions
60° at 7 knots 10,000+ meters
  • No significant clouds
TAF OMRK 181102Z 1812/1918 34010KT CAVOK BECMG 1815/1817 VRB02KT BECMG 1908/1910 34015KT BECMG 1916/1918 06007KT
Issued Jun-18 @ 11:02 UTC
(2 hours ago)
Valid From Jun-18 @ 12:00 UTC
(an hour ago)
Valid To Jun-19 @ 18:00 UTC
(-1 days ago)
Jun-18 @ 12:00 - Jun-18 @ 15:00
Wind Visibility
340° at 10 knots 10,000+ meters
Clouds
  • No significant clouds
Conditions
Becoming Jun-18 @ 15:00 - Jun-19 @ 08:00
Wind Visibility
Variable at 2 knots 10,000+ meters
Clouds
  • No significant clouds
Conditions
Becoming Jun-19 @ 08:00 - Jun-19 @ 16:00
Wind Visibility
340° at 15 knots 10,000+ meters
Clouds
  • No significant clouds
Conditions
Becoming Jun-19 @ 16:00 - Jun-19 @ 18:00
Wind Visibility
60° at 7 knots 10,000+ meters
Clouds
  • No significant clouds
Conditions